Hampton, Canada
Current Conditions -  °F | °C
As of 1:00 PM on Thursday 18 Dec 2014 (Local Time) from CYSJ Reporting Station
Light Snow Light Snow  
Wind Chill: 21°   Ceiling: 600
Heat Index: 32°   Visibility: 2mi
Dew Point: 30°   Wind: 17mph
Humidity: 93%   Direction: 310°NW
Pressure: 29.41"   Gusts: NA
Location:  45.53°N, 65.83°W
Report Text: CYSJ 181700Z 31015KT 2SM -SN BKN006 OVC012 00/M01 A2941 RMK SF5SC3 SLP962
Loading
Personal Weather Stations






























Interactive Weather Map New forecast layout! Learn more

10-Day Weather Forecast

Advertisements
Track Severe Weather on mobile